sensor_id;sensor_type;location;lat;lon;timestamp;P1;durP1;ratioP1;P2;durP2;ratioP2
37485;SDS011;23341;50.296;18.960;2023-11-21T00:02:09;48.97;;;19.77;;
37485;SDS011;23341;50.296;18.960;2023-11-21T00:07:15;60.30;;;20.88;;
37485;SDS011;23341;50.296;18.960;2023-11-21T00:12:20;13.65;;;8.45;;
37485;SDS011;23341;50.296;18.960;2023-11-21T00:17:24;11.07;;;7.18;;
37485;SDS011;23341;50.296;18.960;2023-11-21T00:22:30;12.02;;;7.63;;
37485;SDS011;23341;50.296;18.960;2023-11-21T00:27:35;17.17;;;8.55;;
37485;SDS011;23341;50.296;18.960;2023-11-21T00:32:40;13.55;;;9.23;;
37485;SDS011;23341;50.296;18.960;2023-11-21T00:37:46;15.10;;;9.70;;
37485;SDS011;23341;50.296;18.960;2023-11-21T00:42:52;18.58;;;12.05;;
37485;SDS011;23341;50.296;18.960;2023-11-21T00:47:56;22.50;;;15.32;;
37485;SDS011;23341;50.296;18.960;2023-11-21T00:53:03;28.20;;;17.92;;
37485;SDS011;23341;50.296;18.960;2023-11-21T00:58:07;33.20;;;20.23;;
37485;SDS011;23341;50.296;18.960;2023-11-21T01:03:12;25.90;;;19.95;;
37485;SDS011;23341;50.296;18.960;2023-11-21T01:08:19;32.90;;;21.08;;
37485;SDS011;23341;50.296;18.960;2023-11-21T01:13:24;27.35;;;17.83;;
37485;SDS011;23341;50.296;18.960;2023-11-21T01:18:30;26.13;;;16.40;;
37485;SDS011;23341;50.296;18.960;2023-11-21T01:23:36;21.77;;;14.82;;
37485;SDS011;23341;50.296;18.960;2023-11-21T01:28:41;21.38;;;16.05;;
37485;SDS011;23341;50.296;18.960;2023-11-21T01:33:45;28.45;;;18.10;;
37485;SDS011;23341;50.296;18.960;2023-11-21T01:38:51;25.02;;;14.40;;
37485;SDS011;23341;50.296;18.960;2023-11-21T01:43:56;20.30;;;14.45;;
37485;SDS011;23341;50.296;18.960;2023-11-21T01:49:00;17.48;;;10.80;;
37485;SDS011;23341;50.296;18.960;2023-11-21T01:54:06;20.10;;;11.70;;
37485;SDS011;23341;50.296;18.960;2023-11-21T01:59:20;19.77;;;13.02;;
37485;SDS011;23341;50.296;18.960;2023-11-21T02:04:25;16.85;;;12.25;;
37485;SDS011;23341;50.296;18.960;2023-11-21T02:09:32;18.50;;;11.52;;
37485;SDS011;23341;50.296;18.960;2023-11-21T02:14:36;15.13;;;9.95;;
37485;SDS011;23341;50.296;18.960;2023-11-21T02:19:41;27.33;;;12.52;;
37485;SDS011;23341;50.296;18.960;2023-11-21T02:24:47;15.57;;;10.85;;
37485;SDS011;23341;50.296;18.960;2023-11-21T02:29:51;15.15;;;9.63;;
37485;SDS011;23341;50.296;18.960;2023-11-21T02:34:57;9.07;;;7.47;;
37485;SDS011;23341;50.296;18.960;2023-11-21T02:40:06;13.30;;;9.25;;
37485;SDS011;23341;50.296;18.960;2023-11-21T02:45:15;17.40;;;11.13;;
37485;SDS011;23341;50.296;18.960;2023-11-21T02:50:20;17.45;;;9.70;;
37485;SDS011;23341;50.296;18.960;2023-11-21T02:55:27;10.25;;;8.95;;
37485;SDS011;23341;50.296;18.960;2023-11-21T03:00:33;14.45;;;9.70;;
37485;SDS011;23341;50.296;18.960;2023-11-21T03:05:38;13.73;;;7.70;;
37485;SDS011;23341;50.296;18.960;2023-11-21T03:10:43;20.70;;;9.82;;
37485;SDS011;23341;50.296;18.960;2023-11-21T03:15:48;11.38;;;8.32;;
37485;SDS011;23341;50.296;18.960;2023-11-21T03:20:54;13.98;;;9.40;;
37485;SDS011;23341;50.296;18.960;2023-11-21T03:25:59;14.35;;;10.07;;
37485;SDS011;23341;50.296;18.960;2023-11-21T03:31:05;14.95;;;9.50;;
37485;SDS011;23341;50.296;18.960;2023-11-21T03:36:11;20.95;;;10.07;;
37485;SDS011;23341;50.296;18.960;2023-11-21T03:41:18;14.57;;;9.02;;
37485;SDS011;23341;50.296;18.960;2023-11-21T03:46:23;22.38;;;9.63;;
37485;SDS011;23341;50.296;18.960;2023-11-21T03:51:28;17.33;;;9.20;;
37485;SDS011;23341;50.296;18.960;2023-11-21T03:56:34;25.90;;;10.15;;
37485;SDS011;23341;50.296;18.960;2023-11-21T04:01:38;23.92;;;13.98;;
37485;SDS011;23341;50.296;18.960;2023-11-21T04:06:43;33.58;;;14.00;;
37485;SDS011;23341;50.296;18.960;2023-11-21T04:11:49;14.98;;;10.75;;
37485;SDS011;23341;50.296;18.960;2023-11-21T04:16:53;21.25;;;11.18;;
37485;SDS011;23341;50.296;18.960;2023-11-21T04:21:58;23.52;;;12.15;;
37485;SDS011;23341;50.296;18.960;2023-11-21T04:27:04;24.55;;;13.43;;
37485;SDS011;23341;50.296;18.960;2023-11-21T04:32:08;25.83;;;12.95;;
37485;SDS011;23341;50.296;18.960;2023-11-21T04:37:13;33.95;;;14.35;;
37485;SDS011;23341;50.296;18.960;2023-11-21T04:42:19;48.15;;;18.38;;
37485;SDS011;23341;50.296;18.960;2023-11-21T04:47:23;47.95;;;20.15;;
37485;SDS011;23341;50.296;18.960;2023-11-21T04:52:27;54.38;;;25.10;;
37485;SDS011;23341;50.296;18.960;2023-11-21T04:57:34;45.17;;;20.55;;
37485;SDS011;23341;50.296;18.960;2023-11-21T05:02:38;33.15;;;20.88;;
37485;SDS011;23341;50.296;18.960;2023-11-21T05:07:44;40.50;;;23.70;;
37485;SDS011;23341;50.296;18.960;2023-11-21T05:12:50;44.40;;;24.60;;
37485;SDS011;23341;50.296;18.960;2023-11-21T05:17:54;47.58;;;25.60;;
37485;SDS011;23341;50.296;18.960;2023-11-21T05:23:02;44.60;;;24.25;;
37485;SDS011;23341;50.296;18.960;2023-11-21T05:28:08;38.65;;;25.38;;
37485;SDS011;23341;50.296;18.960;2023-11-21T05:33:13;35.88;;;23.63;;
37485;SDS011;23341;50.296;18.960;2023-11-21T05:38:17;39.67;;;21.77;;
37485;SDS011;23341;50.296;18.960;2023-11-21T05:43:25;36.40;;;22.70;;
37485;SDS011;23341;50.296;18.960;2023-11-21T05:48:32;46.95;;;24.80;;
37485;SDS011;23341;50.296;18.960;2023-11-21T05:53:36;37.35;;;22.02;;
37485;SDS011;23341;50.296;18.960;2023-11-21T05:58:42;35.58;;;22.70;;
37485;SDS011;23341;50.296;18.960;2023-11-21T06:03:46;36.88;;;19.92;;
37485;SDS011;23341;50.296;18.960;2023-11-21T06:08:52;39.22;;;22.60;;
37485;SDS011;23341;50.296;18.960;2023-11-21T06:13:57;56.35;;;26.30;;
37485;SDS011;23341;50.296;18.960;2023-11-21T06:19:02;54.38;;;27.20;;
37485;SDS011;23341;50.296;18.960;2023-11-21T06:24:08;50.63;;;27.75;;
37485;SDS011;23341;50.296;18.960;2023-11-21T06:29:14;41.00;;;24.95;;
37485;SDS011;23341;50.296;18.960;2023-11-21T06:34:18;51.83;;;27.98;;
37485;SDS011;23341;50.296;18.960;2023-11-21T06:39:24;45.83;;;26.38;;
37485;SDS011;23341;50.296;18.960;2023-11-21T06:44:30;43.53;;;25.27;;
37485;SDS011;23341;50.296;18.960;2023-11-21T06:49:36;48.70;;;28.92;;
37485;SDS011;23341;50.296;18.960;2023-11-21T06:54:41;53.95;;;30.67;;
37485;SDS011;23341;50.296;18.960;2023-11-21T06:59:46;66.00;;;35.08;;
37485;SDS011;23341;50.296;18.960;2023-11-21T07:04:51;60.20;;;30.50;;
37485;SDS011;23341;50.296;18.960;2023-11-21T07:09:55;73.20;;;38.47;;
37485;SDS011;23341;50.296;18.960;2023-11-21T07:15:01;58.28;;;32.90;;
37485;SDS011;23341;50.296;18.960;2023-11-21T07:20:08;52.92;;;28.23;;
37485;SDS011;23341;50.296;18.960;2023-11-21T07:25:14;51.72;;;27.83;;
37485;SDS011;23341;50.296;18.960;2023-11-21T07:30:20;55.30;;;29.10;;
37485;SDS011;23341;50.296;18.960;2023-11-21T07:35:25;55.65;;;32.25;;
37485;SDS011;23341;50.296;18.960;2023-11-21T07:40:29;64.47;;;34.97;;
37485;SDS011;23341;50.296;18.960;2023-11-21T07:45:36;52.70;;;29.23;;
37485;SDS011;23341;50.296;18.960;2023-11-21T07:50:40;51.47;;;26.95;;
37485;SDS011;23341;50.296;18.960;2023-11-21T07:55:44;56.17;;;28.45;;
37485;SDS011;23341;50.296;18.960;2023-11-21T08:00:51;64.18;;;32.65;;
37485;SDS011;23341;50.296;18.960;2023-11-21T08:05:55;58.90;;;31.75;;
37485;SDS011;23341;50.296;18.960;2023-11-21T08:11:00;65.10;;;36.67;;
37485;SDS011;23341;50.296;18.960;2023-11-21T08:16:08;36.15;;;23.20;;
37485;SDS011;23341;50.296;18.960;2023-11-21T08:21:13;39.08;;;24.35;;
37485;SDS011;23341;50.296;18.960;2023-11-21T08:26:18;92.75;;;44.10;;
37485;SDS011;23341;50.296;18.960;2023-11-21T08:31:27;40.00;;;24.23;;
37485;SDS011;23341;50.296;18.960;2023-11-21T08:36:32;35.78;;;19.20;;
37485;SDS011;23341;50.296;18.960;2023-11-21T08:41:36;46.50;;;24.33;;
37485;SDS011;23341;50.296;18.960;2023-11-21T08:46:42;59.67;;;28.15;;
37485;SDS011;23341;50.296;18.960;2023-11-21T08:51:47;49.30;;;24.30;;
37485;SDS011;23341;50.296;18.960;2023-11-21T08:56:52;42.90;;;22.95;;
37485;SDS011;23341;50.296;18.960;2023-11-21T09:01:58;51.35;;;26.40;;
37485;SDS011;23341;50.296;18.960;2023-11-21T09:07:03;42.55;;;22.35;;
37485;SDS011;23341;50.296;18.960;2023-11-21T09:12:07;45.63;;;27.38;;
37485;SDS011;23341;50.296;18.960;2023-11-21T09:17:16;36.83;;;21.08;;
37485;SDS011;23341;50.296;18.960;2023-11-21T09:22:21;47.78;;;29.20;;
37485;SDS011;23341;50.296;18.960;2023-11-21T09:27:27;39.03;;;25.38;;
37485;SDS011;23341;50.296;18.960;2023-11-21T09:32:33;68.63;;;32.25;;
37485;SDS011;23341;50.296;18.960;2023-11-21T09:37:39;71.93;;;39.33;;
37485;SDS011;23341;50.296;18.960;2023-11-21T09:42:47;72.82;;;46.95;;
37485;SDS011;23341;50.296;18.960;2023-11-21T09:47:58;46.25;;;26.83;;
37485;SDS011;23341;50.296;18.960;2023-11-21T09:53:06;51.05;;;27.25;;
37485;SDS011;23341;50.296;18.960;2023-11-21T09:58:18;51.65;;;26.80;;
37485;SDS011;23341;50.296;18.960;2023-11-21T10:03:25;41.47;;;26.08;;
37485;SDS011;23341;50.296;18.960;2023-11-21T10:08:30;22.05;;;16.83;;
37485;SDS011;23341;50.296;18.960;2023-11-21T10:13:52;23.13;;;16.08;;
37485;SDS011;23341;50.296;18.960;2023-11-21T10:18:59;40.42;;;18.98;;
37485;SDS011;23341;50.296;18.960;2023-11-21T10:24:13;16.42;;;10.52;;
37485;SDS011;23341;50.296;18.960;2023-11-21T10:29:18;14.68;;;9.93;;
37485;SDS011;23341;50.296;18.960;2023-11-21T10:34:26;17.83;;;10.82;;
37485;SDS011;23341;50.296;18.960;2023-11-21T10:39:30;15.38;;;8.85;;
37485;SDS011;23341;50.296;18.960;2023-11-21T10:44:37;13.40;;;8.35;;
37485;SDS011;23341;50.296;18.960;2023-11-21T10:49:43;33.97;;;14.85;;
37485;SDS011;23341;50.296;18.960;2023-11-21T10:54:48;22.42;;;10.20;;
37485;SDS011;23341;50.296;18.960;2023-11-21T10:59:52;19.15;;;12.20;;
37485;SDS011;23341;50.296;18.960;2023-11-21T11:04:59;14.70;;;8.63;;
37485;SDS011;23341;50.296;18.960;2023-11-21T11:10:05;12.32;;;8.30;;
37485;SDS011;23341;50.296;18.960;2023-11-21T11:15:17;21.42;;;14.95;;
37485;SDS011;23341;50.296;18.960;2023-11-21T11:20:25;18.77;;;10.40;;
37485;SDS011;23341;50.296;18.960;2023-11-21T11:25:45;20.48;;;12.15;;
37485;SDS011;23341;50.296;18.960;2023-11-21T11:31:01;21.17;;;12.73;;
37485;SDS011;23341;50.296;18.960;2023-11-21T11:36:17;17.02;;;10.63;;
37485;SDS011;23341;50.296;18.960;2023-11-21T11:41:26;15.13;;;12.07;;
37485;SDS011;23341;50.296;18.960;2023-11-21T11:46:41;13.80;;;9.68;;
37485;SDS011;23341;50.296;18.960;2023-11-21T11:51:51;25.23;;;17.52;;
37485;SDS011;23341;50.296;18.960;2023-11-21T11:57:34;47.00;;;22.50;;
37485;SDS011;23341;50.296;18.960;2023-11-21T12:02:39;110.07;;;46.65;;
37485;SDS011;23341;50.296;18.960;2023-11-21T12:07:46;36.80;;;19.17;;
37485;SDS011;23341;50.296;18.960;2023-11-21T12:12:53;24.25;;;18.52;;
37485;SDS011;23341;50.296;18.960;2023-11-21T12:17:59;28.42;;;20.02;;
37485;SDS011;23341;50.296;18.960;2023-11-21T12:23:05;36.55;;;25.80;;
37485;SDS011;23341;50.296;18.960;2023-11-21T12:28:12;32.85;;;20.90;;
37485;SDS011;23341;50.296;18.960;2023-11-21T12:33:17;36.60;;;22.98;;
37485;SDS011;23341;50.296;18.960;2023-11-21T12:38:23;18.73;;;12.60;;
37485;SDS011;23341;50.296;18.960;2023-11-21T12:43:27;59.95;;;30.92;;
37485;SDS011;23341;50.296;18.960;2023-11-21T12:48:36;78.88;;;42.13;;
37485;SDS011;23341;50.296;18.960;2023-11-21T12:53:43;48.60;;;30.52;;
37485;SDS011;23341;50.296;18.960;2023-11-21T12:58:47;37.35;;;22.42;;
37485;SDS011;23341;50.296;18.960;2023-11-21T13:03:54;27.38;;;18.50;;
37485;SDS011;23341;50.296;18.960;2023-11-21T13:09:02;32.05;;;23.13;;
37485;SDS011;23341;50.296;18.960;2023-11-21T13:14:07;23.45;;;17.88;;
37485;SDS011;23341;50.296;18.960;2023-11-21T13:19:14;41.63;;;26.48;;
37485;SDS011;23341;50.296;18.960;2023-11-21T13:24:20;29.10;;;18.85;;
37485;SDS011;23341;50.296;18.960;2023-11-21T13:29:25;38.22;;;22.73;;
37485;SDS011;23341;50.296;18.960;2023-11-21T13:34:29;54.60;;;31.83;;
37485;SDS011;23341;50.296;18.960;2023-11-21T13:39:37;42.45;;;26.80;;
37485;SDS011;23341;50.296;18.960;2023-11-21T13:44:47;72.63;;;45.03;;
37485;SDS011;23341;50.296;18.960;2023-11-21T13:49:53;69.43;;;48.78;;
37485;SDS011;23341;50.296;18.960;2023-11-21T13:54:59;64.85;;;40.38;;
37485;SDS011;23341;50.296;18.960;2023-11-21T14:00:09;91.40;;;50.10;;
37485;SDS011;23341;50.296;18.960;2023-11-21T14:05:34;94.35;;;59.63;;
37485;SDS011;23341;50.296;18.960;2023-11-21T14:10:40;75.10;;;54.45;;
37485;SDS011;23341;50.296;18.960;2023-11-21T14:15:46;90.38;;;71.40;;
37485;SDS011;23341;50.296;18.960;2023-11-21T14:20:53;97.93;;;77.00;;
37485;SDS011;23341;50.296;18.960;2023-11-21T14:26:00;86.25;;;59.10;;
37485;SDS011;23341;50.296;18.960;2023-11-21T14:31:05;59.03;;;40.03;;
37485;SDS011;23341;50.296;18.960;2023-11-21T14:36:10;88.30;;;57.83;;
37485;SDS011;23341;50.296;18.960;2023-11-21T14:41:16;101.88;;;54.72;;
37485;SDS011;23341;50.296;18.960;2023-11-21T14:46:20;74.35;;;50.70;;
37485;SDS011;23341;50.296;18.960;2023-11-21T14:51:25;97.50;;;67.15;;
37485;SDS011;23341;50.296;18.960;2023-11-21T14:56:31;98.82;;;58.65;;
37485;SDS011;23341;50.296;18.960;2023-11-21T15:01:37;85.18;;;58.17;;
37485;SDS011;23341;50.296;18.960;2023-11-21T15:06:49;74.53;;;52.15;;
37485;SDS011;23341;50.296;18.960;2023-11-21T15:11:57;85.07;;;59.30;;
37485;SDS011;23341;50.296;18.960;2023-11-21T15:17:09;67.55;;;42.67;;
37485;SDS011;23341;50.296;18.960;2023-11-21T15:22:16;102.10;;;59.15;;
37485;SDS011;23341;50.296;18.960;2023-11-21T15:27:23;101.78;;;53.65;;
37485;SDS011;23341;50.296;18.960;2023-11-21T15:32:30;114.32;;;60.53;;
37485;SDS011;23341;50.296;18.960;2023-11-21T15:37:35;124.28;;;66.32;;
37485;SDS011;23341;50.296;18.960;2023-11-21T15:42:41;122.65;;;74.97;;
37485;SDS011;23341;50.296;18.960;2023-11-21T15:47:46;137.70;;;82.65;;
37485;SDS011;23341;50.296;18.960;2023-11-21T15:52:51;132.68;;;84.82;;
37485;SDS011;23341;50.296;18.960;2023-11-21T15:58:01;116.10;;;77.47;;
37485;SDS011;23341;50.296;18.960;2023-11-21T16:03:07;128.23;;;78.43;;
37485;SDS011;23341;50.296;18.960;2023-11-21T16:08:12;96.03;;;63.58;;
37485;SDS011;23341;50.296;18.960;2023-11-21T16:13:18;107.85;;;66.30;;
37485;SDS011;23341;50.296;18.960;2023-11-21T16:18:23;99.40;;;62.95;;
37485;SDS011;23341;50.296;18.960;2023-11-21T16:23:29;65.70;;;42.88;;
37485;SDS011;23341;50.296;18.960;2023-11-21T16:28:35;54.03;;;33.95;;
37485;SDS011;23341;50.296;18.960;2023-11-21T16:33:40;48.45;;;27.77;;
37485;SDS011;23341;50.296;18.960;2023-11-21T16:38:44;56.50;;;31.83;;
37485;SDS011;23341;50.296;18.960;2023-11-21T16:43:50;62.33;;;33.30;;
37485;SDS011;23341;50.296;18.960;2023-11-21T16:48:55;60.00;;;29.02;;
37485;SDS011;23341;50.296;18.960;2023-11-21T16:53:59;69.75;;;39.38;;
37485;SDS011;23341;50.296;18.960;2023-11-21T16:59:06;42.25;;;25.85;;
37485;SDS011;23341;50.296;18.960;2023-11-21T17:04:11;95.43;;;53.55;;
37485;SDS011;23341;50.296;18.960;2023-11-21T17:09:18;106.05;;;56.03;;
37485;SDS011;23341;50.296;18.960;2023-11-21T17:14:24;39.60;;;20.90;;
37485;SDS011;23341;50.296;18.960;2023-11-21T17:19:28;38.42;;;23.23;;
37485;SDS011;23341;50.296;18.960;2023-11-21T17:24:35;38.15;;;23.10;;
37485;SDS011;23341;50.296;18.960;2023-11-21T17:29:42;55.00;;;28.17;;
37485;SDS011;23341;50.296;18.960;2023-11-21T17:34:47;225.15;;;94.63;;
37485;SDS011;23341;50.296;18.960;2023-11-21T17:39:52;56.88;;;33.78;;
37485;SDS011;23341;50.296;18.960;2023-11-21T17:44:58;32.58;;;20.90;;
37485;SDS011;23341;50.296;18.960;2023-11-21T17:50:04;39.05;;;24.50;;
37485;SDS011;23341;50.296;18.960;2023-11-21T17:55:09;32.65;;;20.83;;
37485;SDS011;23341;50.296;18.960;2023-11-21T18:00:15;32.33;;;19.70;;
37485;SDS011;23341;50.296;18.960;2023-11-21T18:05:21;29.42;;;17.58;;
37485;SDS011;23341;50.296;18.960;2023-11-21T18:10:26;33.40;;;20.90;;
37485;SDS011;23341;50.296;18.960;2023-11-21T18:15:32;244.57;;;71.38;;
37485;SDS011;23341;50.296;18.960;2023-11-21T18:20:36;268.42;;;70.47;;
37485;SDS011;23341;50.296;18.960;2023-11-21T18:25:41;23.85;;;15.80;;
37485;SDS011;23341;50.296;18.960;2023-11-21T18:30:47;16.00;;;12.10;;
37485;SDS011;23341;50.296;18.960;2023-11-21T18:35:52;15.50;;;10.23;;
37485;SDS011;23341;50.296;18.960;2023-11-21T18:40:57;13.68;;;10.95;;
37485;SDS011;23341;50.296;18.960;2023-11-21T18:46:04;26.83;;;18.17;;
37485;SDS011;23341;50.296;18.960;2023-11-21T18:51:09;15.27;;;10.18;;
37485;SDS011;23341;50.296;18.960;2023-11-21T18:56:18;9.30;;;7.57;;
37485;SDS011;23341;50.296;18.960;2023-11-21T19:01:28;6.55;;;5.85;;
37485;SDS011;23341;50.296;18.960;2023-11-21T19:06:34;10.02;;;7.00;;
37485;SDS011;23341;50.296;18.960;2023-11-21T19:11:38;9.15;;;6.80;;
37485;SDS011;23341;50.296;18.960;2023-11-21T19:16:45;7.22;;;5.63;;
37485;SDS011;23341;50.296;18.960;2023-11-21T19:21:51;7.00;;;5.88;;
37485;SDS011;23341;50.296;18.960;2023-11-21T19:26:56;9.02;;;6.47;;
37485;SDS011;23341;50.296;18.960;2023-11-21T19:32:03;8.18;;;6.60;;
37485;SDS011;23341;50.296;18.960;2023-11-21T19:37:08;9.00;;;6.93;;
37485;SDS011;23341;50.296;18.960;2023-11-21T19:42:13;12.90;;;8.63;;
37485;SDS011;23341;50.296;18.960;2023-11-21T19:47:19;15.18;;;9.30;;
37485;SDS011;23341;50.296;18.960;2023-11-21T19:52:24;17.30;;;10.70;;
37485;SDS011;23341;50.296;18.960;2023-11-21T19:57:29;15.30;;;9.35;;
37485;SDS011;23341;50.296;18.960;2023-11-21T20:02:35;8.60;;;6.45;;
37485;SDS011;23341;50.296;18.960;2023-11-21T20:07:40;6.82;;;5.45;;
37485;SDS011;23341;50.296;18.960;2023-11-21T20:12:44;11.38;;;5.82;;
37485;SDS011;23341;50.296;18.960;2023-11-21T20:18:01;9.77;;;6.47;;
37485;SDS011;23341;50.296;18.960;2023-11-21T20:23:06;9.55;;;6.93;;
37485;SDS011;23341;50.296;18.960;2023-11-21T20:28:11;8.70;;;6.53;;
37485;SDS011;23341;50.296;18.960;2023-11-21T20:33:17;11.07;;;6.80;;
37485;SDS011;23341;50.296;18.960;2023-11-21T20:38:22;9.95;;;7.45;;
37485;SDS011;23341;50.296;18.960;2023-11-21T20:43:26;10.55;;;7.55;;
37485;SDS011;23341;50.296;18.960;2023-11-21T20:48:32;10.05;;;7.85;;
37485;SDS011;23341;50.296;18.960;2023-11-21T20:53:37;13.07;;;9.98;;
37485;SDS011;23341;50.296;18.960;2023-11-21T20:58:41;11.43;;;8.68;;
37485;SDS011;23341;50.296;18.960;2023-11-21T21:03:47;10.82;;;8.48;;
37485;SDS011;23341;50.296;18.960;2023-11-21T21:08:52;14.65;;;9.63;;
37485;SDS011;23341;50.296;18.960;2023-11-21T21:13:57;15.60;;;11.20;;
37485;SDS011;23341;50.296;18.960;2023-11-21T21:19:03;16.23;;;11.80;;
37485;SDS011;23341;50.296;18.960;2023-11-21T21:24:08;15.68;;;11.23;;
37485;SDS011;23341;50.296;18.960;2023-11-21T21:29:13;16.00;;;11.65;;
37485;SDS011;23341;50.296;18.960;2023-11-21T21:34:19;17.65;;;11.63;;
37485;SDS011;23341;50.296;18.960;2023-11-21T21:39:23;21.05;;;13.52;;
37485;SDS011;23341;50.296;18.960;2023-11-21T21:44:28;194.73;;;61.85;;
37485;SDS011;23341;50.296;18.960;2023-11-21T21:49:34;204.52;;;58.17;;
37485;SDS011;23341;50.296;18.960;2023-11-21T21:54:39;224.52;;;66.35;;
37485;SDS011;23341;50.296;18.960;2023-11-21T21:59:44;279.95;;;83.30;;
37485;SDS011;23341;50.296;18.960;2023-11-21T22:04:53;180.43;;;55.55;;
37485;SDS011;23341;50.296;18.960;2023-11-21T22:09:58;211.32;;;61.80;;
37485;SDS011;23341;50.296;18.960;2023-11-21T22:15:03;319.75;;;86.60;;
37485;SDS011;23341;50.296;18.960;2023-11-21T22:20:10;157.77;;;48.42;;
37485;SDS011;23341;50.296;18.960;2023-11-21T22:25:15;343.92;;;96.75;;
37485;SDS011;23341;50.296;18.960;2023-11-21T22:30:20;174.57;;;50.95;;
37485;SDS011;23341;50.296;18.960;2023-11-21T22:35:28;321.98;;;93.88;;
37485;SDS011;23341;50.296;18.960;2023-11-21T22:40:33;696.97;;;221.82;;
37485;SDS011;23341;50.296;18.960;2023-11-21T22:45:38;142.77;;;48.90;;
37485;SDS011;23341;50.296;18.960;2023-11-21T22:50:43;100.18;;;34.58;;
37485;SDS011;23341;50.296;18.960;2023-11-21T22:55:50;59.45;;;25.65;;
37485;SDS011;23341;50.296;18.960;2023-11-21T23:00:54;27.00;;;18.33;;
37485;SDS011;23341;50.296;18.960;2023-11-21T23:06:02;98.13;;;39.55;;
37485;SDS011;23341;50.296;18.960;2023-11-21T23:11:07;121.82;;;51.30;;
37485;SDS011;23341;50.296;18.960;2023-11-21T23:16:11;123.03;;;48.65;;
37485;SDS011;23341;50.296;18.960;2023-11-21T23:21:21;84.47;;;35.42;;
37485;SDS011;23341;50.296;18.960;2023-11-21T23:26:25;74.10;;;31.52;;
37485;SDS011;23341;50.296;18.960;2023-11-21T23:31:30;50.40;;;27.50;;
37485;SDS011;23341;50.296;18.960;2023-11-21T23:36:36;49.53;;;25.25;;
37485;SDS011;23341;50.296;18.960;2023-11-21T23:41:41;57.50;;;28.83;;
37485;SDS011;23341;50.296;18.960;2023-11-21T23:46:45;53.90;;;28.35;;
37485;SDS011;23341;50.296;18.960;2023-11-21T23:51:51;104.63;;;45.55;;
37485;SDS011;23341;50.296;18.960;2023-11-21T23:56:56;68.75;;;33.67;;
